createdAt,value
2017-12-01T00:00:24.553Z,0.26
2017-12-01T00:01:24.313Z,0.11
2017-12-01T00:02:24.327Z,0.19
2017-12-01T00:03:24.340Z,0.23
2017-12-01T00:04:24.356Z,0.20
2017-12-01T00:05:24.365Z,0.15
2017-12-01T00:06:24.368Z,0.13
2017-12-01T00:07:24.382Z,0.18
2017-12-01T00:08:24.388Z,0.06
2017-12-01T00:09:24.397Z,0.06
2017-12-01T00:10:24.410Z,0.08
2017-12-01T00:11:24.421Z,0.11
2017-12-01T00:12:24.439Z,0.11
2017-12-01T00:13:24.448Z,0.08
2017-12-01T00:14:24.454Z,0.08
2017-12-01T00:15:24.460Z,0.06
2017-12-01T00:16:24.470Z,0.08
2017-12-01T00:17:24.480Z,0.08
2017-12-01T00:18:24.488Z,0.06
2017-12-01T00:19:24.497Z,0.05
2017-12-01T00:20:24.512Z,0.02
2017-12-01T00:21:24.526Z,0.00
2017-12-01T00:22:24.538Z,0.06
2017-12-01T00:23:24.551Z,0.01
2017-12-01T00:24:24.558Z,0.08
2017-12-01T00:25:24.556Z,0.06
2017-12-01T00:26:24.577Z,0.19
2017-12-01T00:27:24.574Z,0.15
2017-12-01T00:28:24.594Z,0.24
2017-12-01T00:29:24.616Z,0.18
2017-12-01T00:30:24.865Z,0.20
2017-12-01T00:31:24.628Z,0.27
2017-12-01T00:32:24.638Z,0.20
2017-12-01T00:33:24.648Z,0.20
2017-12-01T00:34:24.659Z,0.30
2017-12-01T00:35:24.964Z,0.24
2017-12-01T00:36:24.678Z,0.20
2017-12-01T00:37:24.699Z,0.31
2017-12-01T00:38:24.704Z,0.27
2017-12-01T00:39:24.717Z,0.30
2017-12-01T00:40:24.716Z,0.36
2017-12-01T00:41:24.731Z,0.29
2017-12-01T00:42:24.744Z,0.31
2017-12-01T00:43:24.749Z,0.36
2017-12-01T00:44:24.774Z,0.44
2017-12-01T00:45:24.776Z,0.37
2017-12-01T00:46:24.780Z,0.45
2017-12-01T00:47:24.794Z,0.49
2017-12-01T00:48:24.805Z,0.45
2017-12-01T00:49:24.808Z,0.47
2017-12-01T00:50:24.829Z,0.51
2017-12-01T00:51:24.846Z,0.51
2017-12-01T00:52:24.852Z,0.56
2017-12-01T00:53:24.860Z,0.59
2017-12-01T00:54:24.871Z,0.59
2017-12-01T00:55:24.884Z,0.61
2017-12-01T00:56:24.882Z,0.63
2017-12-01T00:57:24.898Z,0.66
2017-12-01T00:58:24.918Z,0.63
2017-12-01T00:59:24.922Z,0.59
2017-12-01T01:00:24.935Z,0.63
2017-12-01T01:01:24.955Z,0.64
2017-12-01T01:02:24.954Z,0.58
2017-12-01T01:03:24.963Z,0.64
2017-12-01T01:04:24.986Z,0.64
2017-12-01T01:05:25.250Z,0.58
2017-12-01T01:06:25.008Z,0.59
2017-12-01T01:07:25.006Z,0.63
2017-12-01T01:08:25.025Z,0.58
2017-12-01T01:09:25.035Z,0.58
2017-12-01T01:10:25.043Z,0.58
2017-12-01T01:11:25.057Z,0.58
2017-12-01T01:12:25.070Z,0.61
2017-12-01T01:13:25.085Z,0.61
2017-12-01T01:14:25.084Z,0.56
2017-12-01T01:15:25.090Z,0.49
2017-12-01T01:16:25.108Z,0.56
2017-12-01T01:17:25.111Z,0.63
2017-12-01T01:18:25.143Z,0.52
2017-12-01T01:19:25.142Z,0.55
2017-12-01T01:20:25.146Z,0.56
2017-12-01T01:21:25.154Z,0.55
2017-12-01T01:22:25.167Z,0.61
2017-12-01T01:23:25.178Z,0.63
2017-12-01T01:24:25.186Z,0.58
2017-12-01T01:25:25.197Z,0.59
2017-12-01T01:26:25.218Z,0.61
2017-12-01T01:27:25.227Z,0.55
2017-12-01T01:28:25.237Z,0.68
2017-12-01T01:29:25.244Z,0.58
2017-12-01T01:30:25.266Z,0.64
2017-12-01T01:31:25.263Z,0.64
2017-12-01T01:32:25.269Z,0.63
2017-12-01T01:33:25.297Z,0.61
2017-12-01T01:34:25.302Z,0.70
2017-12-01T01:35:25.313Z,0.70
2017-12-01T01:36:25.316Z,0.68
2017-12-01T01:37:25.329Z,0.67
2017-12-01T01:38:25.361Z,0.77
2017-12-01T01:39:25.352Z,0.74
2017-12-01T01:40:25.370Z,0.77
2017-12-01T01:41:25.377Z,0.78
2017-12-01T01:42:25.390Z,0.76
2017-12-01T01:43:25.388Z,0.73
2017-12-01T01:44:25.410Z,0.77
2017-12-01T01:45:25.412Z,0.77
2017-12-01T01:46:25.434Z,0.84
2017-12-01T01:47:25.446Z,0.86
2017-12-01T01:48:25.452Z,0.86
2017-12-01T01:49:25.454Z,0.82
2017-12-01T01:50:25.475Z,0.86
2017-12-01T01:51:25.477Z,0.94
2017-12-01T01:52:25.492Z,0.96
2017-12-01T01:53:25.512Z,1.00
2017-12-01T01:54:25.516Z,0.92
2017-12-01T01:55:25.529Z,1.00
2017-12-01T01:56:25.535Z,1.07
2017-12-01T01:57:25.546Z,1.04
2017-12-01T01:58:25.563Z,1.12
2017-12-01T01:59:25.569Z,1.02
2017-12-01T02:00:25.582Z,1.02
2017-12-01T02:01:25.595Z,1.04
2017-12-01T02:02:25.594Z,1.09
2017-12-01T02:03:25.614Z,1.07
2017-12-01T02:04:25.631Z,1.18
2017-12-01T02:05:25.640Z,1.18
2017-12-01T02:06:25.646Z,1.09
2017-12-01T02:07:25.651Z,1.14
2017-12-01T02:08:25.665Z,1.02
2017-12-01T02:09:25.680Z,1.18
2017-12-01T02:10:25.697Z,1.12
2017-12-01T02:11:25.711Z,1.21
2017-12-01T02:12:25.708Z,1.25
2017-12-01T02:13:25.716Z,1.04
2017-12-01T02:14:25.737Z,1.18
2017-12-01T02:15:26.054Z,1.28
2017-12-01T02:16:25.766Z,1.24
2017-12-01T02:17:25.776Z,1.28
2017-12-01T02:18:25.781Z,1.25
2017-12-01T02:19:25.787Z,1.38
2017-12-01T02:20:25.793Z,1.30
2017-12-01T02:21:25.819Z,1.22
2017-12-01T02:22:25.832Z,1.22
2017-12-01T02:23:25.878Z,1.30
2017-12-01T02:24:25.851Z,1.31
2017-12-01T02:25:25.860Z,1.30
2017-12-01T02:26:25.888Z,1.32
2017-12-01T02:27:25.889Z,1.30
2017-12-01T02:28:25.895Z,1.27
2017-12-01T02:29:25.922Z,1.24
2017-12-01T02:30:25.922Z,1.27
2017-12-01T02:31:25.945Z,1.32
2017-12-01T02:32:25.941Z,1.38
2017-12-01T02:33:25.948Z,1.34
2017-12-01T02:34:25.954Z,1.42
2017-12-01T02:35:25.979Z,1.46
2017-12-01T02:36:25.997Z,1.48
2017-12-01T02:37:26.000Z,1.45
2017-12-01T02:38:26.012Z,1.34
2017-12-01T02:39:26.017Z,1.53
2017-12-01T02:40:26.343Z,1.52
2017-12-01T02:41:26.050Z,1.58
2017-12-01T02:42:26.056Z,1.53
2017-12-01T02:43:26.069Z,1.43
2017-12-01T02:44:26.068Z,1.57
2017-12-01T02:45:26.076Z,1.45
2017-12-01T02:46:26.107Z,1.61
2017-12-01T02:47:26.108Z,1.52
2017-12-01T02:48:26.125Z,1.56
2017-12-01T02:49:26.134Z,1.52
2017-12-01T02:50:26.134Z,1.61
2017-12-01T02:51:26.159Z,1.66
2017-12-01T02:52:26.165Z,1.50
2017-12-01T02:53:26.179Z,1.68
2017-12-01T02:54:26.192Z,1.49
2017-12-01T02:55:26.190Z,1.66
2017-12-01T02:56:26.219Z,1.60
2017-12-01T02:57:26.225Z,1.58
2017-12-01T02:58:26.229Z,1.60
2017-12-01T02:59:26.249Z,1.63
2017-12-01T03:00:26.560Z,1.66
2017-12-01T03:01:26.274Z,1.63
2017-12-01T03:02:26.281Z,1.68
2017-12-01T03:03:26.285Z,1.66
2017-12-01T03:04:26.306Z,1.68
2017-12-01T03:05:26.316Z,1.64
2017-12-01T03:06:26.331Z,1.68
2017-12-01T03:07:26.344Z,1.64
2017-12-01T03:08:26.350Z,1.70
2017-12-01T03:09:26.352Z,1.71
2017-12-01T03:10:26.624Z,1.68
2017-12-01T03:11:26.389Z,1.71
2017-12-01T03:12:26.401Z,1.79
2017-12-01T03:13:26.412Z,1.70
2017-12-01T03:14:26.409Z,1.71
2017-12-01T03:15:26.435Z,1.75
2017-12-01T03:16:26.439Z,1.81
2017-12-01T03:17:26.461Z,1.74
2017-12-01T03:18:26.462Z,1.75
2017-12-01T03:19:26.466Z,1.82
2017-12-01T03:20:26.792Z,1.79
2017-12-01T03:21:26.508Z,1.79
2017-12-01T03:22:26.505Z,1.81
2017-12-01T03:23:26.525Z,1.79
2017-12-01T03:24:26.525Z,1.85
2017-12-01T03:25:26.802Z,1.79
2017-12-01T03:26:26.557Z,1.78
2017-12-01T03:27:26.568Z,1.78
2017-12-01T03:28:26.581Z,1.78
2017-12-01T03:29:26.602Z,1.85
2017-12-01T03:30:26.602Z,1.81
2017-12-01T03:31:26.621Z,1.82
2017-12-01T03:32:26.619Z,1.82
2017-12-01T03:33:26.629Z,1.85
2017-12-01T03:34:26.655Z,1.86
2017-12-01T03:35:26.666Z,1.86
2017-12-01T03:36:26.671Z,1.78
2017-12-01T03:37:26.680Z,1.82
2017-12-01T03:38:26.686Z,1.85
2017-12-01T03:39:26.710Z,1.88
2017-12-01T03:40:27.016Z,1.79
2017-12-01T03:41:26.732Z,1.93
2017-12-01T03:42:26.743Z,1.85
2017-12-01T03:43:26.744Z,1.89
2017-12-01T03:44:26.773Z,1.93
2017-12-01T03:45:26.782Z,1.92
2017-12-01T03:46:26.788Z,1.88
2017-12-01T03:47:26.796Z,1.82
2017-12-01T03:48:26.817Z,1.97
2017-12-01T03:49:26.830Z,1.89
2017-12-01T03:50:26.836Z,1.81
2017-12-01T03:51:26.858Z,1.89
2017-12-01T03:52:26.856Z,1.81
2017-12-01T03:53:26.875Z,1.76
2017-12-01T03:54:26.882Z,1.85
2017-12-01T03:55:26.891Z,1.79
2017-12-01T03:56:26.918Z,1.84
2017-12-01T03:57:26.916Z,1.81
2017-12-01T03:58:26.932Z,1.84
2017-12-01T03:59:26.941Z,1.98
2017-12-01T04:00:26.945Z,1.85
2017-12-01T04:01:26.970Z,1.92
2017-12-01T04:02:26.983Z,1.82
2017-12-01T04:03:26.996Z,1.97
2017-12-01T04:04:26.996Z,1.89
2017-12-01T04:05:27.004Z,1.97
2017-12-01T04:06:27.015Z,1.95
2017-12-01T04:07:27.040Z,1.97
2017-12-01T04:08:27.040Z,1.89
2017-12-01T04:09:27.048Z,1.89
2017-12-01T04:10:27.068Z,1.89
2017-12-01T04:11:27.073Z,2.00
2017-12-01T04:12:27.091Z,1.95
2017-12-01T04:13:27.107Z,1.97
2017-12-01T04:14:27.104Z,1.89
2017-12-01T04:15:27.118Z,1.93
2017-12-01T04:16:27.141Z,2.00
2017-12-01T04:17:27.144Z,1.98
2017-12-01T04:18:27.163Z,2.05
2017-12-01T04:19:27.161Z,2.00
2017-12-01T04:20:27.481Z,2.03
2017-12-01T04:21:27.207Z,1.97
2017-12-01T04:22:27.207Z,2.03
2017-12-01T04:23:27.214Z,1.88
2017-12-01T04:24:27.218Z,1.98
2017-12-01T04:25:27.241Z,1.98
2017-12-01T04:26:27.260Z,1.97
2017-12-01T04:27:27.265Z,1.98
2017-12-01T04:28:27.277Z,1.89
2017-12-01T04:29:27.280Z,1.93
2017-12-01T04:30:27.297Z,1.92
2017-12-01T04:31:27.311Z,1.92
2017-12-01T04:32:27.322Z,1.95
2017-12-01T04:33:27.324Z,1.85
2017-12-01T04:34:27.337Z,1.81
2017-12-01T04:35:27.354Z,1.92
2017-12-01T04:36:27.374Z,1.86
2017-12-01T04:37:27.377Z,1.88
2017-12-01T04:38:27.387Z,1.92
2017-12-01T04:39:27.406Z,1.93
2017-12-01T04:40:27.411Z,1.92
2017-12-01T04:41:27.429Z,1.93
2017-12-01T04:42:27.439Z,1.92
2017-12-01T04:43:27.445Z,1.98
2017-12-01T04:44:27.463Z,1.97
2017-12-01T04:45:27.473Z,1.98
2017-12-01T04:46:27.482Z,1.93
2017-12-01T04:47:27.489Z,1.97
2017-12-01T04:48:27.494Z,2.01
2017-12-01T04:49:27.523Z,2.10
2017-12-01T04:50:27.836Z,1.92
2017-12-01T04:51:27.541Z,1.98
2017-12-01T04:52:27.546Z,2.03
2017-12-01T04:53:27.575Z,2.01
2017-12-01T04:54:27.574Z,2.03
2017-12-01T04:55:27.592Z,2.00
2017-12-01T04:56:27.591Z,1.95
2017-12-01T04:57:27.601Z,1.98
2017-12-01T04:58:27.632Z,2.05
2017-12-01T04:59:27.637Z,2.08
2017-12-01T05:00:27.658Z,2.07
2017-12-01T05:01:27.658Z,1.98
2017-12-01T05:02:27.675Z,2.01
2017-12-01T05:03:27.688Z,1.97
2017-12-01T05:04:27.693Z,1.93
2017-12-01T05:05:27.695Z,2.05
2017-12-01T05:06:27.727Z,2.03
2017-12-01T05:07:27.726Z,1.97
2017-12-01T05:08:27.757Z,2.04
2017-12-01T05:09:27.749Z,1.98
2017-12-01T05:10:27.754Z,2.03
2017-12-01T05:11:27.784Z,2.03
2017-12-01T05:12:27.788Z,2.00
2017-12-01T05:13:27.804Z,1.95
2017-12-01T05:14:27.806Z,1.97
2017-12-01T05:15:27.828Z,1.98
2017-12-01T05:16:27.835Z,1.97
2017-12-01T05:17:27.850Z,2.00
2017-12-01T05:18:27.856Z,1.98
2017-12-01T05:19:27.865Z,2.01
2017-12-01T05:20:28.185Z,1.97
2017-12-01T05:21:27.896Z,1.93
2017-12-01T05:22:27.908Z,1.97
2017-12-01T05:23:27.906Z,2.03
2017-12-01T05:24:27.920Z,1.95
2017-12-01T05:25:27.940Z,2.00
2017-12-01T05:26:27.952Z,1.95
2017-12-01T05:27:27.965Z,1.97
2017-12-01T05:28:27.968Z,1.98
2017-12-01T05:29:27.987Z,2.01
2017-12-01T05:30:28.248Z,1.93
2017-12-01T05:31:28.014Z,1.98
2017-12-01T05:32:28.015Z,1.98
2017-12-01T05:33:28.025Z,1.97
2017-12-01T05:34:28.041Z,2.00
2017-12-01T05:35:28.362Z,2.03
2017-12-01T05:36:28.064Z,2.01
2017-12-01T05:37:28.075Z,2.01
2017-12-01T05:38:28.093Z,2.00
2017-12-01T05:39:28.098Z,2.00
2017-12-01T05:40:28.124Z,2.03
2017-12-01T05:41:28.120Z,1.95
2017-12-01T05:42:28.131Z,2.00
2017-12-01T05:43:28.164Z,2.03
2017-12-01T05:44:28.161Z,1.98
2017-12-01T05:45:28.166Z,2.04
2017-12-01T05:46:28.178Z,2.04
2017-12-01T05:47:28.201Z,2.04
2017-12-01T05:48:28.210Z,1.93
2017-12-01T05:49:28.223Z,2.04
2017-12-01T05:50:28.226Z,1.98
2017-12-01T05:51:28.234Z,1.98
2017-12-01T05:52:28.252Z,1.95
2017-12-01T05:53:28.260Z,1.98
2017-12-01T05:54:28.273Z,2.03
2017-12-01T05:55:28.283Z,2.00
2017-12-01T05:56:28.295Z,1.93
2017-12-01T05:57:28.315Z,1.95
2017-12-01T05:58:28.321Z,1.97
2017-12-01T05:59:28.325Z,1.93
2017-12-01T06:00:28.340Z,1.93
2017-12-01T06:01:28.366Z,1.84
2017-12-01T06:02:28.365Z,1.95
2017-12-01T06:03:28.379Z,1.95
2017-12-01T06:04:28.386Z,1.79
2017-12-01T06:05:28.649Z,1.88
2017-12-01T06:06:28.418Z,1.82
2017-12-01T06:07:28.421Z,1.78
2017-12-01T06:08:28.444Z,1.81
2017-12-01T06:09:28.447Z,1.82
2017-12-01T06:10:28.456Z,1.78
2017-12-01T06:11:28.480Z,1.82
2017-12-01T06:12:28.497Z,1.76
2017-12-01T06:13:28.489Z,1.78
2017-12-01T06:14:28.508Z,1.79
2017-12-01T06:15:28.506Z,1.81
2017-12-01T06:16:28.538Z,1.79
2017-12-01T06:17:28.546Z,1.82
2017-12-01T06:18:28.545Z,1.71
2017-12-01T06:19:28.565Z,1.74
2017-12-01T06:20:28.814Z,1.67
2017-12-01T06:21:28.584Z,1.68
2017-12-01T06:22:28.598Z,1.60
2017-12-01T06:23:28.608Z,1.68
2017-12-01T06:24:28.620Z,1.61
2017-12-01T06:25:28.631Z,1.66
2017-12-01T06:26:28.647Z,1.64
2017-12-01T06:27:28.654Z,1.60
2017-12-01T06:28:28.665Z,1.71
2017-12-01T06:29:28.688Z,1.67
2017-12-01T06:30:28.682Z,1.71
2017-12-01T06:31:28.699Z,1.64
2017-12-01T06:32:28.711Z,1.75
2017-12-01T06:33:28.720Z,1.66
2017-12-01T06:34:28.743Z,1.67
2017-12-01T06:35:28.736Z,1.76
2017-12-01T06:36:28.756Z,1.70
2017-12-01T06:37:28.769Z,1.76
2017-12-01T06:38:28.778Z,1.75
2017-12-01T06:39:28.788Z,1.74
2017-12-01T06:40:29.100Z,1.61
2017-12-01T06:41:28.803Z,1.64
2017-12-01T06:42:28.820Z,1.64
2017-12-01T06:43:28.839Z,1.71
2017-12-01T06:44:28.845Z,1.74
2017-12-01T06:45:28.848Z,1.71
2017-12-01T06:46:28.862Z,1.74
2017-12-01T06:47:28.883Z,1.70
2017-12-01T06:48:28.897Z,1.68
2017-12-01T06:49:28.915Z,1.68
2017-12-01T06:50:28.910Z,1.70
2017-12-01T06:51:28.925Z,1.74
2017-12-01T06:52:28.937Z,1.67
2017-12-01T06:53:28.950Z,1.71
2017-12-01T06:54:28.957Z,1.64
2017-12-01T06:55:28.967Z,1.68
2017-12-01T06:56:28.988Z,1.64
2017-12-01T06:57:28.990Z,1.67
2017-12-01T06:58:29.008Z,1.66
2017-12-01T06:59:29.013Z,1.66
2017-12-01T07:00:29.018Z,1.64
2017-12-01T07:01:29.067Z,1.61
2017-12-01T07:02:29.041Z,1.66
2017-12-01T07:03:29.058Z,1.64
2017-12-01T07:04:29.076Z,1.60
2017-12-01T07:05:29.085Z,1.57
2017-12-01T07:06:29.084Z,1.60
2017-12-01T07:07:29.098Z,1.58
2017-12-01T07:08:29.110Z,1.61
2017-12-01T07:09:29.128Z,1.58
2017-12-01T07:10:29.140Z,1.56
2017-12-01T07:11:29.140Z,1.60
2017-12-01T07:12:29.155Z,1.58
2017-12-01T07:13:29.164Z,1.70
2017-12-01T07:14:29.187Z,1.58
2017-12-01T07:15:29.193Z,1.56
2017-12-01T07:16:29.204Z,1.66
2017-12-01T07:17:29.207Z,1.57
2017-12-01T07:18:29.221Z,1.48
2017-12-01T07:19:29.229Z,1.57
2017-12-01T07:20:29.256Z,1.46
2017-12-01T07:21:29.266Z,1.49
2017-12-01T07:22:29.270Z,1.52
2017-12-01T07:23:29.284Z,1.49
2017-12-01T07:24:29.288Z,1.53
2017-12-01T07:25:29.298Z,1.58
2017-12-01T07:26:29.323Z,1.56
2017-12-01T07:27:29.324Z,1.53
2017-12-01T07:28:29.334Z,1.52
2017-12-01T07:29:29.346Z,1.50
2017-12-01T07:30:29.354Z,1.56
2017-12-01T07:31:29.379Z,1.56
2017-12-01T07:32:29.378Z,1.58
2017-12-01T07:33:29.392Z,1.60
2017-12-01T07:34:29.406Z,1.58
2017-12-01T07:35:29.404Z,1.63
2017-12-01T07:36:29.437Z,1.56
2017-12-01T07:37:29.446Z,1.60
2017-12-01T07:38:29.445Z,1.60
2017-12-01T07:39:29.463Z,1.61
2017-12-01T07:40:29.461Z,1.64
2017-12-01T07:41:29.489Z,1.63
2017-12-01T07:42:29.502Z,1.68
2017-12-01T07:43:29.501Z,1.67
2017-12-01T07:44:29.520Z,1.64
2017-12-01T07:45:29.528Z,1.75
2017-12-01T07:46:29.544Z,1.71
2017-12-01T07:47:29.558Z,1.70
2017-12-01T07:48:29.562Z,1.84
2017-12-01T07:49:29.574Z,1.84
2017-12-01T07:50:29.584Z,1.85
2017-12-01T07:51:29.624Z,1.86
2017-12-01T07:52:29.612Z,1.88
2017-12-01T07:53:29.618Z,1.89
2017-12-01T07:54:29.624Z,1.82
2017-12-01T07:55:29.635Z,2.00
2017-12-01T07:56:29.654Z,2.01
2017-12-01T07:57:29.662Z,2.05
2017-12-01T07:58:29.675Z,1.97
2017-12-01T07:59:29.680Z,2.00
2017-12-01T08:00:29.694Z,2.03
2017-12-01T08:01:29.720Z,2.07
2017-12-01T08:02:29.718Z,2.07
2017-12-01T08:03:29.734Z,2.07
2017-12-01T08:04:29.742Z,2.07
2017-12-01T08:05:29.764Z,2.16
2017-12-01T08:06:29.773Z,2.21
2017-12-01T08:07:29.786Z,2.19
2017-12-01T08:08:29.804Z,2.19
2017-12-01T08:09:29.808Z,2.30
2017-12-01T08:10:29.819Z,2.39
2017-12-01T08:11:29.829Z,2.39
2017-12-01T08:12:29.844Z,2.37
2017-12-01T08:13:29.865Z,2.43
2017-12-01T08:14:29.870Z,2.37
2017-12-01T08:15:29.876Z,2.50
2017-12-01T08:16:29.893Z,2.41
2017-12-01T08:17:29.908Z,2.50
2017-12-01T08:18:29.915Z,2.55
2017-12-01T08:19:29.926Z,2.65
2017-12-01T08:20:30.191Z,2.62
2017-12-01T08:21:29.968Z,2.72
2017-12-01T08:22:29.960Z,2.73
2017-12-01T08:23:29.982Z,2.76
2017-12-01T08:24:29.989Z,2.82
2017-12-01T08:25:29.998Z,2.87
2017-12-01T08:26:30.018Z,2.87
2017-12-01T08:27:30.035Z,2.93
2017-12-01T08:28:30.043Z,2.87
2017-12-01T08:29:30.057Z,2.87
2017-12-01T08:30:30.078Z,2.95
2017-12-01T08:31:30.092Z,3.01
2017-12-01T08:32:30.091Z,3.06
2017-12-01T08:33:30.101Z,2.97
2017-12-01T08:34:30.127Z,3.00
2017-12-01T08:35:30.132Z,3.03
2017-12-01T08:36:30.137Z,2.98
2017-12-01T08:37:30.160Z,3.03
2017-12-01T08:38:30.164Z,3.11
2017-12-01T08:39:30.177Z,3.11
2017-12-01T08:40:30.452Z,3.11
2017-12-01T08:41:30.209Z,3.08
2017-12-01T08:42:30.224Z,3.26
2017-12-01T08:43:30.234Z,3.24
2017-12-01T08:44:30.246Z,3.19
2017-12-01T08:45:30.297Z,3.24
2017-12-01T08:46:30.272Z,3.22
2017-12-01T08:47:30.293Z,3.27
2017-12-01T08:48:30.290Z,3.30
2017-12-01T08:49:30.312Z,3.30
2017-12-01T08:50:30.332Z,3.29
2017-12-01T08:51:30.394Z,3.30
2017-12-01T08:52:30.368Z,3.26
2017-12-01T08:53:30.370Z,3.36
2017-12-01T08:54:30.388Z,3.36
2017-12-01T08:55:30.401Z,3.43
2017-12-01T08:56:30.399Z,3.41
2017-12-01T08:57:30.427Z,3.34
2017-12-01T08:58:30.440Z,3.41
2017-12-01T08:59:30.449Z,3.43
2017-12-01T09:00:30.720Z,3.40
2017-12-01T09:01:30.480Z,3.40
2017-12-01T09:02:30.477Z,3.41
2017-12-01T09:03:30.509Z,3.45
2017-12-01T09:04:30.519Z,3.55
2017-12-01T09:05:30.522Z,3.48
2017-12-01T09:06:30.552Z,3.49
2017-12-01T09:07:30.546Z,3.49
2017-12-01T09:08:30.568Z,3.52
2017-12-01T09:09:30.581Z,3.52
2017-12-01T09:10:30.585Z,3.59
2017-12-01T09:11:30.618Z,3.63
2017-12-01T09:12:30.623Z,3.70
2017-12-01T09:13:30.648Z,3.56
2017-12-01T09:14:30.660Z,3.71
2017-12-01T09:15:30.656Z,3.73
2017-12-01T09:16:30.670Z,3.71
2017-12-01T09:17:30.690Z,3.74
2017-12-01T09:18:30.702Z,3.77
2017-12-01T09:19:30.723Z,3.78
2017-12-01T09:20:30.725Z,3.81
2017-12-01T09:21:30.734Z,3.92
2017-12-01T09:22:30.766Z,3.89
2017-12-01T09:23:30.772Z,3.88
2017-12-01T09:24:30.805Z,3.89
2017-12-01T09:25:30.806Z,4.03
2017-12-01T09:26:30.803Z,3.95
2017-12-01T09:27:30.829Z,4.03
2017-12-01T09:28:30.840Z,4.13
2017-12-01T09:29:30.860Z,4.03
2017-12-01T09:30:30.875Z,4.06
2017-12-01T09:31:30.894Z,4.24
2017-12-01T09:32:30.899Z,4.09
2017-12-01T09:33:30.913Z,4.18
2017-12-01T09:34:30.931Z,4.22
2017-12-01T09:35:30.939Z,4.24
2017-12-01T09:36:30.961Z,4.21
2017-12-01T09:37:30.969Z,4.28
2017-12-01T09:38:30.978Z,4.30
2017-12-01T09:39:30.996Z,4.31
2017-12-01T09:40:31.013Z,4.27
2017-12-01T09:41:31.035Z,4.30
2017-12-01T09:42:31.039Z,4.27
2017-12-01T09:43:31.064Z,4.20
2017-12-01T09:44:31.069Z,4.24
2017-12-01T09:45:31.078Z,4.31
2017-12-01T09:46:31.098Z,4.24
2017-12-01T09:47:31.101Z,4.32
2017-12-01T09:48:31.134Z,4.34
2017-12-01T09:49:31.144Z,4.32
2017-12-01T09:50:31.156Z,4.36
2017-12-01T09:51:31.169Z,4.30
2017-12-01T09:52:31.172Z,4.32
2017-12-01T09:53:31.199Z,4.30
2017-12-01T09:54:31.213Z,4.30
2017-12-01T09:55:31.230Z,4.39
2017-12-01T09:56:31.243Z,4.27
2017-12-01T09:57:31.257Z,4.32
2017-12-01T09:58:31.262Z,4.34
2017-12-01T09:59:31.283Z,4.36
2017-12-01T10:00:31.551Z,4.32
2017-12-01T10:01:31.308Z,4.32
2017-12-01T10:02:31.333Z,4.32
2017-12-01T10:03:31.333Z,4.32
2017-12-01T10:04:31.358Z,4.45
2017-12-01T10:05:31.372Z,4.32
2017-12-01T10:06:31.385Z,4.38
2017-12-01T10:07:31.397Z,4.39
2017-12-01T10:08:31.402Z,4.39
2017-12-01T10:09:31.429Z,4.32
2017-12-01T10:10:31.436Z,4.43
2017-12-01T10:11:31.464Z,4.42
2017-12-01T10:12:31.463Z,4.38
2017-12-01T10:13:31.496Z,4.42
2017-12-01T10:14:31.503Z,4.39
2017-12-01T10:15:31.502Z,4.43
2017-12-01T10:16:31.578Z,4.39
2017-12-01T10:17:31.543Z,4.43
2017-12-01T10:18:31.560Z,4.45
2017-12-01T10:19:31.573Z,4.43
2017-12-01T10:20:31.584Z,4.39
2017-12-01T10:21:31.599Z,4.34
2017-12-01T10:22:31.612Z,4.38
2017-12-01T10:23:31.622Z,4.31
2017-12-01T10:24:31.643Z,4.39
2017-12-01T10:25:31.664Z,4.32
2017-12-01T10:26:31.662Z,4.38
2017-12-01T10:27:31.694Z,4.20
2017-12-01T10:28:31.692Z,4.28
2017-12-01T10:29:31.702Z,4.20
2017-12-01T10:30:31.726Z,4.21
2017-12-01T10:31:31.749Z,4.30
2017-12-01T10:32:31.756Z,4.31
2017-12-01T10:33:31.771Z,4.25
2017-12-01T10:34:31.777Z,4.18
2017-12-01T10:35:31.802Z,4.21
2017-12-01T10:36:31.807Z,4.22
2017-12-01T10:37:31.822Z,4.16
2017-12-01T10:38:31.835Z,4.22
2017-12-01T10:39:31.841Z,4.24
2017-12-01T10:40:31.885Z,4.20
2017-12-01T10:41:31.881Z,4.25
2017-12-01T10:42:31.892Z,4.22
2017-12-01T10:43:31.905Z,4.22
2017-12-01T10:44:31.915Z,4.21
2017-12-01T10:45:31.931Z,4.16
2017-12-01T10:46:31.950Z,4.22
2017-12-01T10:47:31.961Z,4.22
2017-12-01T10:48:31.981Z,4.12
2017-12-01T10:49:31.996Z,4.07
2017-12-01T10:50:32.001Z,4.14
2017-12-01T10:51:32.021Z,4.04
2017-12-01T10:52:32.030Z,4.10
2017-12-01T10:53:32.039Z,4.14
2017-12-01T10:54:32.063Z,4.21
2017-12-01T10:55:32.080Z,4.22
2017-12-01T10:56:32.084Z,4.22
2017-12-01T10:57:32.105Z,4.20
2017-12-01T10:58:32.109Z,4.22
2017-12-01T10:59:32.129Z,4.31
2017-12-01T11:00:32.145Z,4.28
2017-12-01T11:01:32.147Z,4.25
2017-12-01T11:02:32.180Z,4.22
2017-12-01T11:03:32.177Z,4.36
2017-12-01T11:04:32.195Z,4.25
2017-12-01T11:05:32.220Z,4.34
2017-12-01T11:06:32.218Z,4.36
2017-12-01T11:07:32.262Z,4.32
2017-12-01T11:08:32.248Z,4.30
2017-12-01T11:09:32.272Z,4.27
2017-12-01T11:10:32.282Z,4.36
2017-12-01T11:11:32.295Z,4.36
2017-12-01T11:12:32.313Z,4.31
2017-12-01T11:13:32.328Z,4.30
2017-12-01T11:14:32.338Z,4.27
2017-12-01T11:15:32.351Z,4.32
2017-12-01T11:16:32.367Z,4.43
2017-12-01T11:17:32.378Z,4.38
2017-12-01T11:18:32.391Z,4.42
2017-12-01T11:19:32.414Z,4.39
2017-12-01T11:20:32.427Z,4.43
2017-12-01T11:21:32.449Z,4.39
2017-12-01T11:22:32.453Z,4.42
2017-12-01T11:23:32.479Z,4.45
2017-12-01T11:24:32.484Z,4.45
2017-12-01T11:25:32.504Z,4.46
2017-12-01T11:26:32.512Z,4.45
2017-12-01T11:27:32.523Z,4.50
2017-12-01T11:28:32.548Z,4.58
2017-12-01T11:29:32.552Z,4.57
2017-12-01T11:30:32.576Z,4.58
2017-12-01T11:31:32.588Z,4.71
2017-12-01T11:32:32.587Z,4.60
2017-12-01T11:33:32.614Z,4.76
2017-12-01T11:34:32.638Z,4.74
2017-12-01T11:35:32.638Z,4.75
2017-12-01T11:36:32.656Z,4.74
2017-12-01T11:37:32.672Z,4.75
2017-12-01T11:38:32.684Z,4.76
2017-12-01T11:39:32.709Z,4.83
2017-12-01T11:40:32.714Z,4.75
2017-12-01T11:41:32.737Z,4.70
2017-12-01T11:42:32.747Z,4.82
2017-12-01T11:43:32.765Z,4.84
2017-12-01T11:44:32.773Z,4.87
2017-12-01T11:45:32.782Z,4.79
2017-12-01T11:46:32.797Z,4.89
2017-12-01T11:47:32.820Z,4.92
2017-12-01T11:48:32.834Z,4.90
2017-12-01T11:49:32.843Z,4.87
2017-12-01T11:50:32.863Z,4.89
2017-12-01T11:51:32.886Z,4.95
2017-12-01T11:52:32.894Z,5.00
2017-12-01T11:53:32.908Z,5.04
2017-12-01T11:54:32.919Z,5.01
2017-12-01T11:55:32.938Z,4.95
2017-12-01T11:56:32.951Z,5.01
2017-12-01T11:57:32.971Z,5.04
2017-12-01T11:58:32.988Z,5.05
2017-12-01T11:59:32.994Z,5.04
2017-12-01T12:00:33.271Z,5.07
2017-12-01T12:01:33.022Z,5.13
2017-12-01T12:02:33.046Z,5.20
2017-12-01T12:03:33.059Z,5.16
2017-12-01T12:04:33.059Z,5.18
2017-12-01T12:05:33.085Z,5.15
2017-12-01T12:06:33.103Z,5.16
2017-12-01T12:07:33.110Z,5.23
2017-12-01T12:08:33.122Z,5.23
2017-12-01T12:09:33.143Z,5.25
2017-12-01T12:10:33.161Z,5.19
2017-12-01T12:11:33.174Z,5.23
2017-12-01T12:12:33.185Z,5.18
2017-12-01T12:13:33.201Z,5.23
2017-12-01T12:14:33.214Z,5.26
2017-12-01T12:15:33.238Z,5.23
2017-12-01T12:16:33.250Z,5.22
2017-12-01T12:17:33.271Z,5.20
2017-12-01T12:18:33.270Z,5.23
2017-12-01T12:19:33.298Z,5.28
2017-12-01T12:20:33.304Z,5.28
2017-12-01T12:21:33.331Z,5.31
2017-12-01T12:22:33.331Z,5.20
2017-12-01T12:23:33.362Z,5.26
2017-12-01T12:24:33.366Z,5.18
2017-12-01T12:25:33.391Z,5.26
2017-12-01T12:26:33.402Z,5.19
2017-12-01T12:27:33.413Z,5.15
2017-12-01T12:28:33.437Z,5.08
2017-12-01T12:29:33.453Z,5.16
2017-12-01T12:30:33.452Z,5.10
2017-12-01T12:31:33.484Z,5.16
2017-12-01T12:32:33.487Z,5.08
2017-12-01T12:33:33.504Z,5.12
2017-12-01T12:34:33.515Z,5.13
2017-12-01T12:35:33.521Z,5.07
2017-12-01T12:36:33.552Z,5.07
2017-12-01T12:37:33.577Z,5.07
2017-12-01T12:38:33.578Z,5.08
2017-12-01T12:39:33.594Z,5.07
2017-12-01T12:40:33.608Z,5.02
2017-12-01T12:41:33.612Z,5.04
2017-12-01T12:42:33.644Z,4.98
2017-12-01T12:43:33.641Z,5.05
2017-12-01T12:44:33.674Z,5.05
2017-12-01T12:45:33.676Z,5.04
2017-12-01T12:46:33.689Z,5.02
2017-12-01T12:47:33.712Z,5.02
2017-12-01T12:48:33.719Z,4.97
2017-12-01T12:49:33.740Z,5.00
2017-12-01T12:50:33.753Z,4.98
2017-12-01T12:51:33.762Z,4.98
2017-12-01T12:52:33.784Z,5.01
2017-12-01T12:53:33.805Z,4.97
2017-12-01T12:54:33.803Z,4.95
2017-12-01T12:55:33.834Z,5.04
2017-12-01T12:56:33.839Z,4.95
2017-12-01T12:57:33.841Z,4.92
2017-12-01T12:58:33.873Z,4.92
2017-12-01T12:59:33.872Z,4.94
2017-12-01T13:00:33.905Z,4.98
2017-12-01T13:01:33.906Z,4.90
2017-12-01T13:02:33.929Z,4.94
2017-12-01T13:03:33.943Z,4.95
2017-12-01T13:04:33.953Z,4.95
2017-12-01T13:05:33.970Z,4.87
2017-12-01T13:06:33.982Z,5.02
2017-12-01T13:07:33.993Z,4.86
2017-12-01T13:08:34.025Z,4.94
2017-12-01T13:09:34.027Z,4.95
2017-12-01T13:10:34.043Z,4.98
2017-12-01T13:11:34.057Z,4.90
2017-12-01T13:12:34.061Z,4.90
2017-12-01T13:13:34.076Z,4.97
2017-12-01T13:14:34.102Z,4.87
2017-12-01T13:15:34.100Z,4.90
2017-12-01T13:16:34.132Z,4.94
2017-12-01T13:17:34.145Z,4.89
2017-12-01T13:18:34.153Z,4.97